createdAt,value
2019-03-23T00:01:44.765Z,40.20
2019-03-23T00:03:45.897Z,33.25
2019-03-23T00:05:47.070Z,34.23
2019-03-23T00:07:48.214Z,33.73
2019-03-23T00:09:49.438Z,32.93
2019-03-23T00:11:50.914Z,32.88
2019-03-23T00:13:52.435Z,33.10
2019-03-23T00:15:53.607Z,36.60
2019-03-23T00:17:54.793Z,29.15
2019-03-23T00:19:56.269Z,32.50
2019-03-23T00:21:57.421Z,30.97
2019-03-23T00:23:58.571Z,30.17
2019-03-23T00:25:59.787Z,25.37
2019-03-23T00:28:01.235Z,21.62
2019-03-23T00:30:08.675Z,18.90
2019-03-23T00:32:10.037Z,18.85
2019-03-23T00:34:11.191Z,17.02
2019-03-23T00:36:12.446Z,18.70
2019-03-23T00:38:13.893Z,18.00
2019-03-23T00:40:15.046Z,18.00
2019-03-23T00:42:16.278Z,16.97
2019-03-23T00:44:17.491Z,18.85
2019-03-23T00:46:19.074Z,14.90
2019-03-23T00:48:20.524Z,18.25
2019-03-23T00:50:21.846Z,16.25
2019-03-23T00:52:23.002Z,19.73
2019-03-23T00:54:24.140Z,19.25
2019-03-23T00:56:25.293Z,20.85
2019-03-23T00:58:26.454Z,20.43
2019-03-23T01:00:27.597Z,18.25
2019-03-23T01:02:28.762Z,21.37
2019-03-23T01:04:30.248Z,20.60
2019-03-23T01:06:32.113Z,18.95
2019-03-23T01:08:33.358Z,20.62
2019-03-23T01:10:34.504Z,21.37
2019-03-23T01:12:35.649Z,20.12
2019-03-23T01:14:37.198Z,16.65
2019-03-23T01:16:38.359Z,16.12
2019-03-23T01:18:39.515Z,12.55
2019-03-23T01:20:49.340Z,19.30
2019-03-23T01:22:43.725Z,17.25
2019-03-23T01:24:44.873Z,16.48
2019-03-23T01:26:46.057Z,18.98
2019-03-23T01:28:47.237Z,17.75
2019-03-23T01:30:48.386Z,13.03
2019-03-23T01:32:49.542Z,17.82
2019-03-23T01:34:50.681Z,15.88
2019-03-23T01:37:02.310Z,20.50
2019-03-23T01:38:54.881Z,18.23
2019-03-23T01:40:56.013Z,18.67
2019-03-23T01:42:57.170Z,20.90
2019-03-23T01:44:58.393Z,21.10
2019-03-23T01:46:59.609Z,17.48
2019-03-23T01:49:00.766Z,16.82
2019-03-23T01:51:01.917Z,15.58
2019-03-23T01:53:03.433Z,16.30
2019-03-23T01:55:05.374Z,17.73
2019-03-23T01:57:06.648Z,18.42
2019-03-23T01:59:08.085Z,16.20
2019-03-23T02:01:09.225Z,17.12
2019-03-23T02:03:10.381Z,16.27
2019-03-23T02:05:11.664Z,15.55
2019-03-23T02:07:14.020Z,15.93
2019-03-23T02:09:15.624Z,13.43
2019-03-23T02:11:16.833Z,13.32
2019-03-23T02:13:18.005Z,9.95
2019-03-23T02:15:19.221Z,15.55
2019-03-23T02:17:20.386Z,13.88
2019-03-23T02:19:21.617Z,12.58
2019-03-23T02:21:22.765Z,16.80
2019-03-23T02:23:23.926Z,14.60
2019-03-23T02:25:25.461Z,13.72
2019-03-23T02:27:26.626Z,18.40
2019-03-23T02:29:27.774Z,12.53
2019-03-23T02:31:28.926Z,12.25
2019-03-23T02:33:30.069Z,14.85
2019-03-23T02:35:31.692Z,14.05
2019-03-23T02:37:32.848Z,14.00
2019-03-23T02:39:34.256Z,16.90
2019-03-23T02:41:35.408Z,13.95
2019-03-23T02:43:36.653Z,16.10
2019-03-23T02:45:37.872Z,15.03
2019-03-23T02:47:39.018Z,12.78
2019-03-23T02:49:40.689Z,16.80
2019-03-23T02:53:42.961Z,13.05
2019-03-23T02:55:44.169Z,12.85
2019-03-23T02:57:45.657Z,16.25
2019-03-23T02:59:46.903Z,14.68
2019-03-23T03:01:48.219Z,12.80
2019-03-23T03:03:49.367Z,12.60
2019-03-23T03:05:50.528Z,11.95
2019-03-23T03:07:51.843Z,16.62
2019-03-23T03:09:53.003Z,16.32
2019-03-23T03:11:54.234Z,17.25
2019-03-23T03:13:55.388Z,16.37
2019-03-23T03:15:56.622Z,15.32
2019-03-23T03:17:57.770Z,16.93
2019-03-23T03:19:58.915Z,15.70
2019-03-23T03:22:00.072Z,14.80
2019-03-23T03:24:01.214Z,17.35
2019-03-23T03:26:02.370Z,13.20
2019-03-23T03:28:03.728Z,16.15
2019-03-23T03:30:07.989Z,20.10
2019-03-23T03:32:09.241Z,18.17
2019-03-23T03:34:10.393Z,15.10
2019-03-23T03:36:11.717Z,15.45
2019-03-23T03:38:12.923Z,17.82
2019-03-23T03:40:14.183Z,18.40
2019-03-23T03:42:15.338Z,35.20
2019-03-23T03:44:16.862Z,20.05
2019-03-23T03:46:18.003Z,20.95
2019-03-23T03:48:19.156Z,27.75
2019-03-23T03:50:20.299Z,30.97
2019-03-23T03:52:21.454Z,35.08
2019-03-23T03:54:22.602Z,32.03
2019-03-23T03:56:23.757Z,43.55
2019-03-23T03:58:25.094Z,44.60
2019-03-23T04:00:26.389Z,50.60
2019-03-23T04:02:27.632Z,105.47
2019-03-23T04:04:28.861Z,88.70
2019-03-23T04:06:30.019Z,82.88
2019-03-23T04:08:31.267Z,78.87
2019-03-23T04:10:32.417Z,83.17
2019-03-23T04:12:33.846Z,90.92
2019-03-23T04:14:34.990Z,67.12
2019-03-23T04:16:36.392Z,78.60
2019-03-23T04:18:37.555Z,81.17
2019-03-23T04:20:39.632Z,87.97
2019-03-23T04:22:41.484Z,86.85
2019-03-23T04:24:42.753Z,88.60
2019-03-23T04:26:43.902Z,87.95
2019-03-23T04:28:45.279Z,88.90
2019-03-23T04:30:46.755Z,104.27
2019-03-23T04:32:47.915Z,141.57
2019-03-23T04:34:49.393Z,102.60
2019-03-23T04:36:50.557Z,138.82
2019-03-23T04:38:51.822Z,129.70
2019-03-23T04:40:53.059Z,111.77
2019-03-23T04:42:54.515Z,132.80
2019-03-23T04:44:55.662Z,125.97
2019-03-23T04:46:57.122Z,105.92
2019-03-23T04:48:58.354Z,134.87
2019-03-23T04:50:59.499Z,114.82
2019-03-23T04:53:00.710Z,102.42
2019-03-23T04:55:07.911Z,144.07
2019-03-23T04:57:09.053Z,125.62
2019-03-23T04:59:10.216Z,125.92
2019-03-23T05:01:11.420Z,116.65
2019-03-23T05:03:12.658Z,89.90
2019-03-23T05:05:13.895Z,86.47
2019-03-23T05:07:15.043Z,91.67
2019-03-23T05:09:16.504Z,88.35
2019-03-23T05:11:17.656Z,122.58
2019-03-23T05:13:18.805Z,93.92
2019-03-23T05:15:19.945Z,101.38
2019-03-23T05:17:21.369Z,103.17
2019-03-23T05:19:22.577Z,122.85
2019-03-23T05:21:24.067Z,115.88
2019-03-23T05:23:25.328Z,115.72
2019-03-23T05:25:28.322Z,126.00
2019-03-23T05:27:29.674Z,126.25
2019-03-23T05:29:30.886Z,118.97
2019-03-23T05:31:32.094Z,111.25
2019-03-23T05:33:33.651Z,129.97
2019-03-23T05:35:35.110Z,114.30
2019-03-23T05:37:36.274Z,97.25
2019-03-23T05:39:37.422Z,119.25
2019-03-23T05:41:38.940Z,127.38
2019-03-23T05:43:40.085Z,142.10
2019-03-23T05:45:41.225Z,128.15
2019-03-23T05:47:42.657Z,111.42
2019-03-23T05:49:43.878Z,113.20
2019-03-23T05:51:45.042Z,137.12
2019-03-23T05:53:46.461Z,104.83
2019-03-23T05:55:47.606Z,124.47
2019-03-23T05:57:48.774Z,107.30
2019-03-23T05:59:49.991Z,125.82
2019-03-23T06:01:51.257Z,123.30
2019-03-23T06:03:52.406Z,123.90
2019-03-23T06:05:53.554Z,131.22
2019-03-23T06:07:54.705Z,142.85
2019-03-23T06:09:55.855Z,143.90
2019-03-23T06:11:57.270Z,133.20
2019-03-23T06:13:58.861Z,135.50
2019-03-23T06:18:01.131Z,121.67
2019-03-23T06:20:05.362Z,138.60
2019-03-23T06:22:06.505Z,135.03
2019-03-23T06:24:07.662Z,126.45
2019-03-23T06:26:09.013Z,133.37
2019-03-23T06:28:10.168Z,142.70
2019-03-23T06:30:11.515Z,129.47
2019-03-23T06:32:12.723Z,122.55
2019-03-23T06:34:13.931Z,127.02
2019-03-23T06:36:15.115Z,132.27
2019-03-23T06:38:18.182Z,118.72
2019-03-23T06:40:19.338Z,112.28
2019-03-23T06:42:20.481Z,120.25
2019-03-23T06:44:21.630Z,125.78
2019-03-23T06:46:23.094Z,121.20
2019-03-23T06:48:24.577Z,122.82
2019-03-23T06:50:25.705Z,116.57
2019-03-23T06:52:26.845Z,118.57
2019-03-23T06:54:28.013Z,94.77
2019-03-23T06:56:29.197Z,123.07
2019-03-23T06:58:30.367Z,131.67
2019-03-23T07:00:31.510Z,126.45
2019-03-23T07:02:32.651Z,127.50
2019-03-23T07:04:33.858Z,124.50
2019-03-23T07:06:35.007Z,119.50
2019-03-23T07:08:36.225Z,130.90
2019-03-23T07:10:37.553Z,128.62
2019-03-23T07:12:38.953Z,127.75
2019-03-23T07:14:40.155Z,139.90
2019-03-23T07:16:41.415Z,135.25
2019-03-23T07:18:42.571Z,134.63
2019-03-23T07:20:43.715Z,138.80
2019-03-23T07:22:45.132Z,141.40
2019-03-23T07:24:46.348Z,129.63
2019-03-23T07:26:47.654Z,136.82
2019-03-23T07:28:48.809Z,134.63
2019-03-23T07:30:49.995Z,137.55
2019-03-23T07:32:51.265Z,139.35
2019-03-23T07:34:52.432Z,156.20
2019-03-23T07:36:53.775Z,136.28
2019-03-23T07:38:54.997Z,115.32
2019-03-23T07:40:56.511Z,153.07
2019-03-23T07:42:57.973Z,150.42
2019-03-23T07:44:59.139Z,138.28
2019-03-23T07:47:00.286Z,140.88
2019-03-23T07:49:01.795Z,156.12
2019-03-23T07:51:03.010Z,131.22
2019-03-23T07:53:04.898Z,141.70
2019-03-23T07:55:14.462Z,146.13
2019-03-23T07:57:15.625Z,163.05
2019-03-23T07:59:17.125Z,110.52
2019-03-23T08:01:18.270Z,150.75
2019-03-23T08:03:19.424Z,155.63
2019-03-23T08:05:20.572Z,162.05
2019-03-23T08:07:21.769Z,123.78
2019-03-23T08:09:23.626Z,159.72
2019-03-23T08:11:24.857Z,159.37
2019-03-23T08:13:26.023Z,168.82
2019-03-23T08:15:27.450Z,167.47
2019-03-23T08:17:28.595Z,167.25
2019-03-23T08:19:29.753Z,113.45
2019-03-23T08:21:30.894Z,181.20
2019-03-23T08:23:32.035Z,191.50
2019-03-23T08:25:33.309Z,181.35
2019-03-23T08:27:34.462Z,178.30
2019-03-23T08:29:35.871Z,151.53
2019-03-23T08:31:37.009Z,146.37
2019-03-23T08:33:38.168Z,142.25
2019-03-23T08:35:39.585Z,147.53
2019-03-23T08:37:41.133Z,156.45
2019-03-23T08:39:48.422Z,167.00
2019-03-23T08:41:45.326Z,147.60
2019-03-23T08:43:46.730Z,149.18
2019-03-23T08:45:47.895Z,152.85
2019-03-23T08:47:49.048Z,141.18
2019-03-23T08:49:50.235Z,147.95
2019-03-23T08:51:53.286Z,141.15
2019-03-23T08:53:54.446Z,160.03
2019-03-23T08:55:55.882Z,156.72
2019-03-23T08:57:57.039Z,153.93
2019-03-23T08:59:58.199Z,122.33
2019-03-23T09:01:59.404Z,135.32
2019-03-23T09:04:00.617Z,156.43
2019-03-23T09:06:01.784Z,136.40
2019-03-23T09:08:03.018Z,135.60
2019-03-23T09:10:05.268Z,131.52
2019-03-23T09:12:06.502Z,135.78
2019-03-23T09:14:07.648Z,135.18
2019-03-23T09:16:09.114Z,127.00
2019-03-23T09:18:10.504Z,147.37
2019-03-23T09:20:11.798Z,132.97
2019-03-23T09:22:12.949Z,129.60
2019-03-23T09:24:14.079Z,102.50
2019-03-23T09:26:15.322Z,123.72
2019-03-23T09:28:16.470Z,138.03
2019-03-23T09:30:17.613Z,126.42
2019-03-23T09:32:19.047Z,130.97
2019-03-23T09:34:20.191Z,126.18
2019-03-23T09:36:22.898Z,118.97
2019-03-23T09:38:24.401Z,120.10
2019-03-23T09:40:25.997Z,131.97
2019-03-23T09:42:27.137Z,121.60
2019-03-23T09:44:28.556Z,135.95
2019-03-23T09:46:30.097Z,113.77
2019-03-23T09:48:31.542Z,119.72
2019-03-23T09:50:33.041Z,125.38
2019-03-23T09:52:36.268Z,125.80
2019-03-23T09:54:38.278Z,118.15
2019-03-23T09:56:39.426Z,109.07
2019-03-23T09:58:40.579Z,108.95
2019-03-23T10:00:42.170Z,99.58
2019-03-23T10:02:43.316Z,99.30
2019-03-23T10:05:05.422Z,108.50
2019-03-23T10:09:08.113Z,107.43
2019-03-23T10:11:09.262Z,111.40
2019-03-23T10:13:10.705Z,100.40
2019-03-23T10:15:12.071Z,108.80
2019-03-23T10:17:13.278Z,102.00
2019-03-23T10:19:14.525Z,100.60
2019-03-23T10:21:15.771Z,99.32
2019-03-23T10:23:16.909Z,95.72
2019-03-23T10:25:18.065Z,78.75
2019-03-23T10:27:19.210Z,102.53
2019-03-23T10:29:20.429Z,103.97
2019-03-23T10:31:21.593Z,91.40
2019-03-23T10:33:22.733Z,102.20
2019-03-23T10:35:23.887Z,97.95
2019-03-23T10:37:26.094Z,104.45
2019-03-23T10:39:27.453Z,93.82
2019-03-23T10:41:28.597Z,90.72
2019-03-23T10:43:29.841Z,84.62
2019-03-23T10:45:40.043Z,101.10
2019-03-23T10:47:36.707Z,98.20
2019-03-23T10:49:38.069Z,95.15
2019-03-23T10:51:39.535Z,93.72
2019-03-23T10:53:40.668Z,84.90
2019-03-23T10:55:42.033Z,92.85
2019-03-23T10:57:43.248Z,86.20
2019-03-23T10:59:44.489Z,93.90
2019-03-23T11:01:45.650Z,85.22
2019-03-23T11:03:46.865Z,96.22
2019-03-23T11:05:48.333Z,78.85
2019-03-23T11:07:49.905Z,90.35
2019-03-23T11:09:51.050Z,90.17
2019-03-23T11:11:52.497Z,85.85
2019-03-23T11:13:53.684Z,86.78
2019-03-23T11:15:54.834Z,90.45
2019-03-23T11:17:55.982Z,92.78
2019-03-23T11:19:58.497Z,87.40
2019-03-23T11:22:00.126Z,91.75
2019-03-23T11:24:01.345Z,85.28
2019-03-23T11:26:02.629Z,87.40
2019-03-23T11:28:03.763Z,87.97
2019-03-23T11:30:10.976Z,83.35
2019-03-23T11:32:12.526Z,86.85
2019-03-23T11:34:17.831Z,84.23
2019-03-23T11:36:16.738Z,89.42
2019-03-23T11:38:17.881Z,85.05
2019-03-23T11:40:19.137Z,78.65
2019-03-23T11:42:56.620Z,82.37
2019-03-23T11:44:57.903Z,90.40
2019-03-23T11:46:59.381Z,79.32
2019-03-23T11:49:00.610Z,80.85
2019-03-23T11:51:04.394Z,75.25
2019-03-23T11:53:05.546Z,81.02
2019-03-23T11:55:28.568Z,78.22
2019-03-23T11:57:29.813Z,76.25
2019-03-23T11:59:31.062Z,78.83
2019-03-23T12:01:32.293Z,75.08
2019-03-23T12:03:33.449Z,76.77
2019-03-23T12:05:34.612Z,72.50
2019-03-23T12:07:36.156Z,68.17
2019-03-23T12:09:37.293Z,66.20
2019-03-23T12:11:38.728Z,69.30
2019-03-23T12:13:39.958Z,68.00
2019-03-23T12:15:41.097Z,66.72
2019-03-23T12:17:42.250Z,75.20
2019-03-23T12:19:43.585Z,71.65
2019-03-23T12:21:44.739Z,62.43
2019-03-23T12:23:45.887Z,62.88
2019-03-23T12:25:47.183Z,74.80
2019-03-23T12:27:48.335Z,73.72
2019-03-23T12:29:49.479Z,72.45
2019-03-23T12:31:50.632Z,58.85
2019-03-23T12:33:51.797Z,57.38
2019-03-23T12:35:52.939Z,69.80
2019-03-23T12:37:54.365Z,65.50
2019-03-23T12:39:57.773Z,60.33
2019-03-23T12:41:59.613Z,68.30
2019-03-23T12:44:01.070Z,62.17
2019-03-23T12:46:03.069Z,66.60
2019-03-23T12:48:04.500Z,72.92
2019-03-23T12:50:07.250Z,61.28
2019-03-23T12:52:08.402Z,71.60
2019-03-23T12:54:09.542Z,74.50
2019-03-23T12:56:10.690Z,68.28
2019-03-23T12:58:11.866Z,77.08
2019-03-23T13:00:14.402Z,73.62
2019-03-23T13:02:15.610Z,69.87
2019-03-23T13:04:16.745Z,69.80
2019-03-23T13:06:18.205Z,64.60
2019-03-23T13:08:19.377Z,66.92
2019-03-23T13:10:20.654Z,66.00
2019-03-23T13:12:21.822Z,74.45
2019-03-23T13:14:22.970Z,67.30
2019-03-23T13:16:24.115Z,70.85
2019-03-23T13:18:27.286Z,61.98
2019-03-23T13:20:28.895Z,66.53
2019-03-23T13:22:30.259Z,67.25
2019-03-23T13:24:31.399Z,64.80
2019-03-23T13:26:32.657Z,59.20
2019-03-23T13:28:33.805Z,66.22
2019-03-23T13:30:35.016Z,66.85
2019-03-23T13:32:36.166Z,51.50
2019-03-23T13:34:38.433Z,65.10
2019-03-23T13:36:40.105Z,71.33
2019-03-23T13:38:41.350Z,70.20
2019-03-23T13:40:42.493Z,64.03
2019-03-23T13:42:43.640Z,68.65
2019-03-23T13:44:44.861Z,70.17
2019-03-23T13:46:46.000Z,49.42
2019-03-23T13:48:47.156Z,62.23
2019-03-23T13:50:48.611Z,60.10
2019-03-23T13:52:49.960Z,65.80
2019-03-23T13:54:51.101Z,62.30
2019-03-23T13:56:52.246Z,59.80
2019-03-23T13:58:53.415Z,60.00
2019-03-23T14:00:54.563Z,64.15
2019-03-23T14:02:55.714Z,60.40
2019-03-23T14:04:57.152Z,64.03
2019-03-23T14:06:58.301Z,61.40
2019-03-23T14:08:59.483Z,62.75
2019-03-23T14:11:00.914Z,67.20
2019-03-23T14:13:02.062Z,73.35
2019-03-23T14:15:05.051Z,70.78
2019-03-23T14:17:06.367Z,68.60
2019-03-23T14:19:07.700Z,67.22
2019-03-23T14:21:08.995Z,73.10
2019-03-23T14:23:10.147Z,69.65
2019-03-23T14:25:11.316Z,72.42
2019-03-23T14:27:12.798Z,73.60
2019-03-23T14:29:14.244Z,79.70
2019-03-23T14:31:15.396Z,72.30
2019-03-23T14:33:16.850Z,74.70
2019-03-23T14:35:18.283Z,73.50
2019-03-23T14:37:19.744Z,69.50
2019-03-23T14:39:21.145Z,68.35
2019-03-23T14:41:22.314Z,67.82
2019-03-23T14:43:23.550Z,63.83
2019-03-23T14:45:24.686Z,65.37
2019-03-23T14:47:26.246Z,65.45
2019-03-23T14:49:27.794Z,72.40
2019-03-23T14:51:28.930Z,67.85
2019-03-23T14:53:30.404Z,70.03
2019-03-23T14:57:33.065Z,73.35
2019-03-23T14:59:34.209Z,61.18
2019-03-23T15:01:35.349Z,59.38
2019-03-23T15:03:36.521Z,45.95
2019-03-23T15:05:37.668Z,53.02
2019-03-23T15:07:38.894Z,42.50
2019-03-23T15:09:40.038Z,48.00
2019-03-23T15:11:41.181Z,49.33
2019-03-23T15:13:42.533Z,48.45
2019-03-23T15:15:43.677Z,55.52
2019-03-23T15:17:48.656Z,48.48
2019-03-23T15:19:47.962Z,53.87
2019-03-23T15:21:49.201Z,48.70
2019-03-23T15:23:50.854Z,50.33
2019-03-23T15:27:53.538Z,58.33
2019-03-23T15:29:55.016Z,53.83
2019-03-23T15:31:56.529Z,53.80
2019-03-23T15:33:57.837Z,47.90
2019-03-23T15:35:58.965Z,51.30
2019-03-23T15:38:00.388Z,57.78
2019-03-23T15:40:01.543Z,51.28
2019-03-23T15:42:02.829Z,60.20
2019-03-23T15:44:03.974Z,49.55
2019-03-23T15:46:05.116Z,53.58
2019-03-23T15:48:06.353Z,58.87
2019-03-23T15:50:07.909Z,48.45
2019-03-23T15:52:09.298Z,49.60
2019-03-23T15:54:10.814Z,51.25
2019-03-23T15:56:12.014Z,55.63
2019-03-23T15:58:13.502Z,53.42
2019-03-23T16:00:15.030Z,57.60
2019-03-23T16:02:16.173Z,56.53
2019-03-23T16:04:17.342Z,51.55
2019-03-23T16:06:18.483Z,57.60
2019-03-23T16:08:19.624Z,57.60
2019-03-23T16:10:20.781Z,61.00
2019-03-23T16:12:21.935Z,54.93
2019-03-23T16:14:23.445Z,56.00
2019-03-23T16:16:24.631Z,66.57
2019-03-23T16:18:25.827Z,62.83
2019-03-23T16:20:26.970Z,65.97
2019-03-23T16:22:28.195Z,65.90
2019-03-23T16:24:29.993Z,64.58
2019-03-23T16:28:32.143Z,61.13
2019-03-23T16:30:33.492Z,56.20
2019-03-23T16:32:35.330Z,58.65
2019-03-23T16:36:37.833Z,58.17
2019-03-23T16:38:38.977Z,69.80
2019-03-23T16:40:40.501Z,64.65
2019-03-23T16:42:45.598Z,69.42
2019-03-23T16:44:44.849Z,70.37
2019-03-23T16:46:45.989Z,70.08
2019-03-23T16:48:47.517Z,65.52
2019-03-23T16:50:48.969Z,63.42
2019-03-23T16:52:50.116Z,69.53
2019-03-23T16:54:51.265Z,59.18
2019-03-23T16:56:52.809Z,54.27
2019-03-23T16:58:54.044Z,59.10
2019-03-23T17:00:55.422Z,56.10
2019-03-23T17:02:56.829Z,60.30
2019-03-23T17:04:57.980Z,60.83
2019-03-23T17:06:59.117Z,59.23
2019-03-23T17:09:00.270Z,60.88
2019-03-23T17:11:01.721Z,60.95
2019-03-23T17:13:02.966Z,59.95
2019-03-23T17:15:06.017Z,58.40
2019-03-23T17:17:07.245Z,62.83
2019-03-23T17:19:08.392Z,63.92
2019-03-23T17:21:09.611Z,57.80
2019-03-23T17:23:10.774Z,60.60
2019-03-23T17:25:12.428Z,57.15
2019-03-23T17:29:14.699Z,50.45
2019-03-23T17:31:16.040Z,50.33
2019-03-23T17:33:17.281Z,50.40
2019-03-23T17:35:18.451Z,45.70
2019-03-23T17:37:19.967Z,45.98
2019-03-23T17:39:21.161Z,43.28
2019-03-23T17:41:22.314Z,42.73
2019-03-23T17:43:23.848Z,40.55
2019-03-23T17:45:25.393Z,43.13
2019-03-23T17:47:26.542Z,42.73
2019-03-23T17:49:27.681Z,38.65
2019-03-23T17:51:28.834Z,40.30
2019-03-23T17:53:30.010Z,38.95
2019-03-23T17:55:31.158Z,38.02
2019-03-23T17:57:32.323Z,38.02
2019-03-23T17:59:33.453Z,37.63
2019-03-23T18:01:34.606Z,41.50
2019-03-23T18:03:36.133Z,43.85
2019-03-23T18:05:37.285Z,46.40
2019-03-23T18:07:38.434Z,43.60
2019-03-23T18:09:39.635Z,47.20
2019-03-23T18:11:40.777Z,47.60
2019-03-23T18:13:41.917Z,49.70
2019-03-23T18:15:43.073Z,52.53
2019-03-23T18:17:44.220Z,45.12
2019-03-23T18:19:45.366Z,47.03
2019-03-23T18:21:46.605Z,51.77
2019-03-23T18:23:48.041Z,47.67
2019-03-23T18:25:49.281Z,43.55
2019-03-23T18:27:50.420Z,42.43
2019-03-23T18:29:51.565Z,40.92
2019-03-23T18:31:53.129Z,42.27
2019-03-23T18:33:54.334Z,35.65
2019-03-23T18:35:55.493Z,40.48
2019-03-23T18:37:56.649Z,25.88
2019-03-23T18:39:57.789Z,28.57
2019-03-23T18:41:59.036Z,29.82
2019-03-23T18:44:00.285Z,26.12
2019-03-23T18:46:01.433Z,30.90
2019-03-23T18:48:02.870Z,25.75
2019-03-23T18:50:05.216Z,27.40
2019-03-23T18:52:26.523Z,26.77
2019-03-23T18:54:27.766Z,28.80
2019-03-23T18:56:29.321Z,21.93
2019-03-23T18:58:30.550Z,29.98
2019-03-23T19:00:36.923Z,24.35
2019-03-23T19:02:38.078Z,28.52
2019-03-23T19:04:39.223Z,31.77
2019-03-23T19:06:40.383Z,29.67
2019-03-23T19:08:41.680Z,30.20
2019-03-23T19:12:44.473Z,29.77
2019-03-23T19:14:45.613Z,28.77
2019-03-23T19:16:47.056Z,25.48
2019-03-23T19:18:49.281Z,29.60
2019-03-23T19:20:50.729Z,27.35
2019-03-23T19:22:51.904Z,28.75
2019-03-23T19:24:53.050Z,25.77
2019-03-23T19:26:54.599Z,27.27
2019-03-23T19:28:55.751Z,31.00
2019-03-23T19:30:56.900Z,29.70
2019-03-23T19:32:58.041Z,27.55
2019-03-23T19:35:00.235Z,25.88
2019-03-23T19:37:01.598Z,25.08
2019-03-23T19:39:05.646Z,27.60
2019-03-23T19:41:07.084Z,25.27
2019-03-23T19:43:08.319Z,27.20
2019-03-23T19:45:09.856Z,33.38
2019-03-23T19:47:11.016Z,29.32
2019-03-23T19:49:12.144Z,26.75
2019-03-23T19:51:13.285Z,28.02
2019-03-23T19:53:14.442Z,28.65
2019-03-23T19:55:15.585Z,27.95
2019-03-23T19:57:16.750Z,27.45
2019-03-23T19:59:17.886Z,28.02
2019-03-23T20:01:19.097Z,26.55
2019-03-23T20:03:20.330Z,31.33
2019-03-23T20:05:21.468Z,28.87
2019-03-23T20:07:32.545Z,24.80
2019-03-23T20:09:25.835Z,31.12
2019-03-23T20:11:27.045Z,25.62
2019-03-23T20:13:28.322Z,26.52
2019-03-23T20:15:29.466Z,32.88
2019-03-23T20:17:30.975Z,28.70
2019-03-23T20:19:32.115Z,26.80
2019-03-23T20:21:33.338Z,23.77
2019-03-23T20:23:34.492Z,28.05
2019-03-23T20:25:36.089Z,27.85
2019-03-23T20:29:38.409Z,26.77
2019-03-23T20:31:39.553Z,26.80
2019-03-23T20:33:40.701Z,20.45
2019-03-23T20:35:41.845Z,26.30
2019-03-23T20:37:43.390Z,17.30
2019-03-23T20:39:44.531Z,20.35
2019-03-23T20:41:45.762Z,29.07
2019-03-23T20:43:47.013Z,20.20
2019-03-23T20:45:48.237Z,20.15
2019-03-23T20:47:49.390Z,23.85
2019-03-23T20:49:51.533Z,25.23
2019-03-23T20:51:52.681Z,24.32
2019-03-23T20:53:54.145Z,25.23
2019-03-23T20:55:55.309Z,23.10
2019-03-23T20:57:56.468Z,25.97
2019-03-23T20:59:57.682Z,26.50
2019-03-23T21:01:58.942Z,25.70
2019-03-23T21:04:00.267Z,21.85
2019-03-23T21:06:01.406Z,24.80
2019-03-23T21:08:02.776Z,22.32
2019-03-23T21:10:05.279Z,21.52
2019-03-23T21:12:06.730Z,23.62
2019-03-23T21:14:07.890Z,28.40
2019-03-23T21:16:09.113Z,21.85
2019-03-23T21:18:10.391Z,20.70
2019-03-23T21:20:11.624Z,15.63
2019-03-23T21:22:12.873Z,19.37
2019-03-23T21:24:14.022Z,21.77
2019-03-23T21:26:15.160Z,23.80
2019-03-23T21:28:16.312Z,20.55
2019-03-23T21:30:19.655Z,19.35
2019-03-23T21:32:21.020Z,20.00
2019-03-23T21:34:22.363Z,24.95
2019-03-23T21:36:23.500Z,19.45
2019-03-23T21:38:24.649Z,20.45
2019-03-23T21:40:26.298Z,23.67
2019-03-23T21:42:27.501Z,18.10
2019-03-23T21:44:31.173Z,19.55
2019-03-23T21:46:31.812Z,19.62
2019-03-23T21:48:33.096Z,17.57
2019-03-23T21:50:34.373Z,14.70
2019-03-23T21:52:35.601Z,19.32
2019-03-23T21:54:36.821Z,21.40
2019-03-23T21:56:37.964Z,20.27
2019-03-23T21:58:39.250Z,18.85
2019-03-23T22:00:40.390Z,15.35
2019-03-23T22:02:41.532Z,18.42
2019-03-23T22:04:42.685Z,20.08
2019-03-23T22:06:43.861Z,19.07
2019-03-23T22:08:45.021Z,17.57
2019-03-23T22:10:46.162Z,17.55
2019-03-23T22:12:47.389Z,16.95
2019-03-23T22:14:48.539Z,12.25
2019-03-23T22:16:49.774Z,23.35
2019-03-23T22:18:50.925Z,16.15
2019-03-23T22:20:52.106Z,20.17
2019-03-23T22:22:53.242Z,15.40
2019-03-23T22:24:54.395Z,12.80
2019-03-23T22:26:55.997Z,17.90
2019-03-23T22:28:57.149Z,23.42
2019-03-23T22:30:58.357Z,18.12
2019-03-23T22:32:59.598Z,18.30
2019-03-23T22:35:00.763Z,16.32
2019-03-23T22:37:01.989Z,14.30
2019-03-23T22:39:05.505Z,16.48
2019-03-23T22:41:06.642Z,17.12
2019-03-23T22:43:07.774Z,20.97
2019-03-23T22:45:09.630Z,9.78
2019-03-23T22:47:10.765Z,18.23
2019-03-23T22:49:11.958Z,11.22
2019-03-23T22:51:13.277Z,24.40
2019-03-23T22:53:14.417Z,17.30
2019-03-23T22:55:15.561Z,19.48
2019-03-23T22:57:17.282Z,18.35
2019-03-23T23:01:19.454Z,20.45
2019-03-23T23:03:20.591Z,20.35
2019-03-23T23:05:21.833Z,13.32
2019-03-23T23:07:22.986Z,18.25
2019-03-23T23:09:24.729Z,20.23
2019-03-23T23:13:26.946Z,23.15
2019-03-23T23:15:28.462Z,18.75
2019-03-23T23:17:29.605Z,19.40
2019-03-23T23:19:30.760Z,19.80
2019-03-23T23:21:32.290Z,15.32
2019-03-23T23:23:33.673Z,15.40
2019-03-23T23:25:35.137Z,19.52
2019-03-23T23:27:36.385Z,20.37
2019-03-23T23:29:37.529Z,22.10
2019-03-23T23:31:38.666Z,18.52
2019-03-23T23:33:39.817Z,11.18
2019-03-23T23:35:40.952Z,21.97
2019-03-23T23:37:42.085Z,21.07
2019-03-23T23:39:43.370Z,27.42
2019-03-23T23:41:44.509Z,24.35
2019-03-23T23:43:45.736Z,20.82
2019-03-23T23:45:46.879Z,19.85
2019-03-23T23:47:48.329Z,21.15
2019-03-23T23:49:49.569Z,18.77
2019-03-23T23:51:50.709Z,21.00
2019-03-23T23:53:51.864Z,23.92
2019-03-23T23:55:53.073Z,21.20
2019-03-23T23:57:54.229Z,31.07
2019-03-23T23:59:55.379Z,23.42
